createdAt,value
2022-12-05T05:35:29.156Z,692.61
2022-12-05T05:36:29.100Z,692.47
2022-12-05T05:37:29.107Z,692.23
2022-12-05T05:38:29.102Z,692.46
2022-12-05T05:39:29.105Z,692.34
2022-12-05T05:40:29.128Z,692.56
2022-12-05T05:41:29.111Z,692.17
2022-12-05T05:42:29.112Z,692.38
2022-12-05T05:43:29.116Z,692.55
2022-12-05T05:44:29.119Z,692.37
2022-12-05T05:45:29.137Z,692.22
2022-12-05T05:46:29.231Z,692.22
2022-12-05T05:47:29.118Z,691.81
2022-12-05T05:48:29.115Z,691.88
2022-12-05T05:49:29.122Z,691.34
2022-12-05T05:50:29.142Z,690.7
2022-12-05T05:51:29.173Z,691.05
2022-12-05T05:52:29.125Z,689.86
2022-12-05T05:53:29.121Z,689.33
2022-12-05T05:54:29.124Z,689.9
2022-12-05T05:55:29.166Z,690.06
2022-12-05T05:56:29.122Z,689.33
2022-12-05T05:57:29.128Z,689.55
2022-12-05T05:58:29.130Z,690.23
2022-12-05T05:59:29.128Z,690.09
2022-12-05T06:00:29.155Z,689.58
2022-12-05T06:01:29.173Z,689.24
2022-12-05T06:02:29.168Z,689.1
2022-12-05T06:03:29.288Z,689.6
2022-12-05T06:04:29.220Z,689.79
2022-12-05T06:05:29.165Z,689.67
2022-12-05T06:06:29.149Z,689.79
2022-12-05T06:07:29.298Z,689.59
2022-12-05T06:08:29.221Z,690.02
2022-12-05T06:09:29.150Z,689.98
2022-12-05T06:10:29.170Z,690.54
2022-12-05T06:11:29.153Z,691.13
2022-12-05T06:12:29.158Z,691.74
2022-12-05T06:13:29.145Z,692.01
2022-12-05T06:14:29.157Z,692.51
2022-12-05T06:15:29.172Z,692.41
2022-12-05T06:16:29.228Z,691.74
2022-12-05T06:17:29.151Z,692.84
2022-12-05T06:18:29.158Z,692.55
2022-12-05T06:19:29.164Z,692.37
2022-12-05T06:20:29.187Z,691.37
2022-12-05T06:21:29.161Z,689.07
2022-12-05T06:22:29.158Z,687.21
2022-12-05T06:23:29.189Z,685.97
2022-12-05T06:24:29.172Z,685.05
2022-12-05T06:25:29.189Z,684.7
2022-12-05T06:26:29.171Z,683.63
2022-12-05T06:27:29.164Z,682.74
2022-12-05T06:28:29.165Z,681.04
2022-12-05T06:29:33.579Z,680.93
2022-12-05T06:30:29.190Z,679.66
2022-12-05T06:31:29.276Z,679.05
2022-12-05T06:32:29.205Z,677.91
2022-12-05T06:33:29.171Z,676.9
2022-12-05T06:34:29.176Z,674.66
2022-12-05T06:35:29.205Z,673.67
2022-12-05T06:36:29.182Z,673.14
2022-12-05T06:37:29.185Z,672.66
2022-12-05T06:38:29.182Z,671.84
2022-12-05T06:39:29.215Z,671.88
2022-12-05T06:40:29.204Z,672.06
2022-12-05T06:41:29.183Z,671.48
2022-12-05T06:42:29.191Z,671.8
2022-12-05T06:43:29.196Z,671.99
2022-12-05T06:44:29.196Z,672.86
2022-12-05T06:45:29.323Z,671.96
2022-12-05T06:46:29.272Z,670.79
2022-12-05T06:47:29.193Z,669.79
2022-12-05T06:48:29.201Z,669.48
2022-12-05T06:49:31.740Z,668.99
2022-12-05T06:50:29.243Z,669.15
2022-12-05T06:51:29.206Z,669.02
2022-12-05T06:52:29.199Z,668.55
2022-12-05T06:53:29.201Z,667.43
2022-12-05T06:54:29.209Z,667.93
2022-12-05T06:55:29.277Z,668.36
2022-12-05T06:56:29.250Z,667.78
2022-12-05T06:57:29.218Z,668.76
2022-12-05T06:58:29.220Z,668.22
2022-12-05T06:59:29.208Z,668.23
2022-12-05T07:00:29.793Z,668.75
2022-12-05T07:01:29.288Z,668.97
2022-12-05T07:02:29.318Z,669.11
2022-12-05T07:03:29.220Z,669.25
2022-12-05T07:04:29.216Z,670.02
2022-12-05T07:05:29.229Z,669.48
2022-12-05T07:06:29.229Z,668.69
2022-12-05T07:07:29.282Z,667.88
2022-12-05T07:08:32.221Z,666.96
2022-12-05T07:09:29.224Z,666.76
2022-12-05T07:10:29.345Z,666.66
2022-12-05T07:11:32.083Z,667.32
2022-12-05T07:12:29.234Z,667.86
2022-12-05T07:13:29.237Z,668.51
2022-12-05T07:14:46.764Z,667.66
2022-12-05T07:15:29.241Z,667.01
2022-12-05T07:16:29.327Z,664.74
2022-12-05T07:17:29.236Z,663.22
2022-12-05T07:18:29.245Z,662.54
2022-12-05T07:19:29.248Z,662.21
2022-12-05T07:20:38.283Z,660.88
2022-12-05T07:21:29.347Z,660.19
2022-12-05T07:22:32.300Z,659.55
2022-12-05T07:23:29.244Z,659.48
2022-12-05T07:24:29.253Z,659.87
2022-12-05T07:25:29.247Z,659.89
2022-12-05T07:26:29.279Z,660.52
2022-12-05T07:27:29.287Z,661.04
2022-12-05T07:28:29.262Z,661.22
2022-12-05T07:29:29.254Z,660.53
2022-12-05T07:30:29.260Z,659.19
2022-12-05T07:31:29.426Z,659.36
2022-12-05T07:32:29.267Z,658.88
2022-12-05T07:33:32.118Z,659.67
2022-12-05T07:34:29.262Z,659.88
2022-12-05T07:35:29.269Z,661.15
2022-12-05T07:36:29.291Z,660.96
2022-12-05T07:37:29.265Z,661.18
2022-12-05T07:38:29.282Z,662.19
2022-12-05T07:39:29.268Z,663.29
2022-12-05T07:40:29.368Z,662.58
2022-12-05T07:41:29.295Z,662.1
2022-12-05T07:42:29.274Z,662.98
2022-12-05T07:43:29.311Z,661.57
2022-12-05T07:44:32.111Z,661.58
2022-12-05T07:45:29.347Z,662.1
2022-12-05T07:46:29.401Z,661.99
2022-12-05T07:47:29.358Z,661.9
2022-12-05T07:48:29.285Z,661.87
2022-12-05T07:49:29.288Z,662.09
2022-12-05T07:50:29.284Z,662.17
2022-12-05T07:51:29.314Z,662.03
2022-12-05T07:52:29.289Z,661.57
2022-12-05T07:53:29.290Z,660.86
2022-12-05T07:54:29.290Z,660.81
2022-12-05T07:55:29.294Z,660.77
2022-12-05T07:56:29.328Z,661.54
2022-12-05T07:57:29.300Z,660.85
2022-12-05T07:58:29.299Z,660.7
2022-12-05T07:59:29.326Z,660.03
2022-12-05T08:00:29.349Z,660.51
2022-12-05T08:01:29.461Z,661.38
2022-12-05T08:02:29.373Z,661.22
2022-12-05T08:03:29.305Z,661.04
2022-12-05T08:04:29.318Z,661.01
2022-12-05T08:05:29.325Z,661.15
2022-12-05T08:06:29.330Z,660.74
2022-12-05T08:07:29.347Z,661.46
2022-12-05T08:08:29.320Z,661.2
2022-12-05T08:09:29.313Z,661.39
2022-12-05T08:10:29.321Z,661.15
2022-12-05T08:11:29.392Z,660.99
2022-12-05T08:12:29.319Z,661.38
2022-12-05T08:13:29.330Z,661.01
2022-12-05T08:14:29.320Z,660.15
2022-12-05T08:15:29.351Z,661.55
2022-12-05T08:16:29.390Z,661.28
2022-12-05T08:17:29.332Z,661.5
2022-12-05T08:18:29.334Z,661.39
2022-12-05T08:19:29.331Z,661.37
2022-12-05T08:20:29.368Z,661.96
2022-12-05T08:21:29.355Z,661.93
2022-12-05T08:22:29.333Z,662.32
2022-12-05T08:23:29.342Z,662.46
2022-12-05T08:24:29.346Z,662.73
2022-12-05T08:25:29.347Z,663.14
2022-12-05T08:26:29.378Z,663.44
2022-12-05T08:27:29.347Z,663.13
2022-12-05T08:28:29.344Z,663.67
2022-12-05T08:29:29.343Z,663.96
2022-12-05T08:30:29.395Z,664.16
2022-12-05T08:31:29.459Z,664.52
2022-12-05T08:32:29.348Z,664.83
2022-12-05T08:33:29.358Z,664.91
2022-12-05T08:34:29.351Z,665.77
2022-12-05T08:35:29.358Z,665.66
2022-12-05T08:36:29.377Z,665.34
2022-12-05T08:37:29.363Z,666.01
2022-12-05T08:38:29.365Z,665.89
2022-12-05T08:39:32.600Z,666.72
2022-12-05T08:40:29.360Z,668.2
2022-12-05T08:41:29.394Z,669.13
2022-12-05T08:42:29.453Z,671.26
2022-12-05T08:43:29.374Z,671.41
2022-12-05T08:44:29.367Z,672.53
2022-12-05T08:45:29.371Z,672.89
2022-12-05T08:46:29.442Z,673.73
2022-12-05T08:47:30.975Z,673.95
2022-12-05T08:48:29.775Z,673.62
2022-12-05T08:49:29.381Z,674.62
2022-12-05T08:50:29.385Z,674.07
2022-12-05T08:51:29.492Z,674.43
2022-12-05T08:52:29.386Z,674.13
2022-12-05T08:53:29.382Z,672.92
2022-12-05T08:54:29.387Z,672.63
2022-12-05T08:55:29.385Z,672.03
2022-12-05T08:56:29.426Z,671.89
2022-12-05T08:57:29.392Z,671.72
2022-12-05T08:58:29.385Z,671.47
2022-12-05T08:59:29.396Z,671.91
2022-12-05T09:00:29.393Z,672.68
2022-12-05T09:01:29.510Z,673.56
2022-12-05T09:02:29.445Z,674.9
2022-12-05T09:03:29.429Z,675.96
2022-12-05T09:04:29.396Z,677.56
2022-12-05T09:05:29.845Z,677.26
2022-12-05T09:06:29.432Z,677.88
2022-12-05T09:07:29.456Z,678.24
2022-12-05T09:08:29.402Z,679.13
2022-12-05T09:09:29.420Z,678.85
2022-12-05T09:10:29.413Z,679.71
2022-12-05T09:11:29.429Z,679.69
2022-12-05T09:12:29.415Z,680.37
2022-12-05T09:13:29.418Z,680.29
2022-12-05T09:14:29.413Z,681.09
2022-12-05T09:15:29.518Z,682.01
2022-12-05T09:16:33.664Z,682.08
2022-12-05T09:17:29.416Z,682.63
2022-12-05T09:18:29.425Z,682.66
2022-12-05T09:19:29.439Z,681.86
2022-12-05T09:20:29.425Z,681.52
2022-12-05T09:21:29.447Z,680.96
2022-12-05T09:22:29.427Z,681.02
2022-12-05T09:23:29.424Z,681.07
2022-12-05T09:24:29.437Z,681.03
2022-12-05T09:25:29.431Z,680.65
2022-12-05T09:26:29.459Z,680.47
2022-12-05T09:27:32.434Z,680.62
2022-12-05T09:28:29.432Z,680.94
2022-12-05T09:29:29.442Z,681.43
2022-12-05T09:30:29.441Z,682.25
2022-12-05T09:31:29.507Z,682.61
2022-12-05T09:32:29.443Z,683.28
2022-12-05T09:33:29.438Z,684.01
2022-12-05T09:34:29.440Z,684.21
2022-12-05T09:35:29.485Z,684.19
2022-12-05T09:36:29.469Z,684.19
2022-12-05T09:37:44.695Z,684.55
2022-12-05T09:38:32.598Z,684.88
2022-12-05T09:39:29.451Z,685.05
2022-12-05T09:40:29.458Z,686.03
2022-12-05T09:41:29.473Z,687.53
2022-12-05T09:42:29.459Z,688.29
2022-12-05T09:43:29.463Z,689.15
2022-12-05T09:44:29.460Z,689.79
2022-12-05T09:45:29.462Z,691.24
2022-12-05T09:46:34.070Z,691.87
2022-12-05T09:47:29.466Z,692.49
2022-12-05T09:48:29.469Z,693.05
2022-12-05T09:49:32.288Z,694.37
2022-12-05T09:50:29.486Z,695.56
2022-12-05T09:51:29.534Z,697.07
2022-12-05T09:52:29.472Z,697.76
2022-12-05T09:53:29.467Z,698.18
2022-12-05T09:54:29.484Z,698.85
2022-12-05T09:55:29.477Z,698.69
2022-12-05T09:56:29.510Z,698.86
2022-12-05T09:57:33.596Z,698.7
2022-12-05T09:58:29.477Z,698.14
2022-12-05T09:59:29.485Z,697.94
2022-12-05T10:00:32.542Z,698.24
2022-12-05T10:01:29.573Z,697.56
2022-12-05T10:02:29.488Z,697.9
2022-12-05T10:03:29.484Z,697.21
2022-12-05T10:04:29.544Z,696.7
2022-12-05T10:05:29.530Z,696.72
2022-12-05T10:06:29.522Z,696.2
2022-12-05T10:07:29.586Z,696.03
2022-12-05T10:08:30.521Z,695.71
2022-12-05T10:09:29.493Z,696.03
2022-12-05T10:10:29.502Z,695.91
2022-12-05T10:11:29.521Z,696.59
2022-12-05T10:12:29.504Z,696.9
2022-12-05T10:13:29.508Z,697.69
2022-12-05T10:14:29.503Z,697.76
2022-12-05T10:15:29.504Z,698.45
2022-12-05T10:16:29.599Z,698.35
2022-12-05T10:17:29.514Z,698.47
2022-12-05T10:18:29.505Z,699.29
2022-12-05T10:19:29.505Z,699.98
2022-12-05T10:20:29.512Z,699.29
2022-12-05T10:21:29.540Z,699.73
2022-12-05T10:22:29.532Z,699.62
2022-12-05T10:23:55.809Z,699.84
2022-12-05T10:24:29.513Z,700.25
2022-12-05T10:25:29.514Z,700.78
2022-12-05T10:26:29.559Z,700.92
2022-12-05T10:27:29.514Z,701.23
2022-12-05T10:28:29.522Z,702.39
2022-12-05T10:29:29.524Z,702.86
2022-12-05T10:30:29.527Z,704.01
2022-12-05T10:31:29.643Z,704.48
2022-12-05T10:32:29.537Z,706.15
2022-12-05T10:33:29.530Z,706.68
2022-12-05T10:34:29.551Z,707.46
2022-12-05T10:35:29.534Z,708.51
2022-12-05T10:36:29.551Z,709.34
2022-12-05T10:37:29.536Z,710.43
2022-12-05T10:38:29.540Z,711.46
2022-12-05T10:39:29.563Z,711.61
2022-12-05T10:40:29.533Z,711.12
2022-12-05T10:41:29.562Z,712.52
2022-12-05T10:42:29.543Z,712.03
2022-12-05T10:43:29.542Z,712.46
2022-12-05T10:44:29.540Z,713.35
2022-12-05T10:45:29.540Z,713.31
2022-12-05T10:46:29.605Z,713.98
2022-12-05T10:47:29.548Z,713.82
2022-12-05T10:48:29.553Z,714.3
2022-12-05T10:49:29.556Z,713.99
2022-12-05T10:50:29.549Z,714.1
2022-12-05T10:51:34.150Z,713.31
2022-12-05T10:52:29.555Z,714.03
2022-12-05T10:53:29.554Z,713.47
2022-12-05T10:54:29.563Z,714.04
2022-12-05T10:55:29.578Z,714.32
2022-12-05T10:56:30.741Z,714.8
2022-12-05T10:57:29.554Z,715.4
2022-12-05T10:58:29.560Z,716.34
2022-12-05T10:59:29.557Z,717.31
2022-12-05T11:00:29.560Z,717.24
2022-12-05T11:01:29.645Z,718.16
2022-12-05T11:02:29.571Z,719.32
2022-12-05T11:03:29.567Z,720.13
2022-12-05T11:04:29.567Z,720.93
2022-12-05T11:05:29.658Z,722.18
2022-12-05T11:06:29.612Z,723.36
2022-12-05T11:07:29.601Z,723.5
2022-12-05T11:08:55.777Z,724.59
2022-12-05T11:09:29.579Z,725.95
2022-12-05T11:10:29.579Z,726.24
2022-12-05T11:11:29.616Z,727.76
2022-12-05T11:12:29.577Z,727.59
2022-12-05T11:13:29.618Z,728.19
2022-12-05T11:14:29.573Z,728.37
2022-12-05T11:15:29.582Z,727.62
2022-12-05T11:16:29.667Z,727.45
2022-12-05T11:17:29.590Z,726.41
2022-12-05T11:18:29.581Z,726.59
2022-12-05T11:19:29.585Z,725.8
2022-12-05T11:20:29.587Z,725.49
2022-12-05T11:21:29.605Z,725.29
2022-12-05T11:22:29.590Z,724.43
2022-12-05T11:23:29.589Z,724
2022-12-05T11:24:29.584Z,723.75
2022-12-05T11:25:29.587Z,724.1
2022-12-05T11:26:29.617Z,724.53
2022-12-05T11:27:29.618Z,725.13
2022-12-05T11:28:29.605Z,725.83
2022-12-05T11:29:29.591Z,726.4
2022-12-05T11:30:29.607Z,726.88
2022-12-05T11:31:29.683Z,727.75
2022-12-05T11:32:29.601Z,728.4
2022-12-05T11:33:29.602Z,729.66
2022-12-05T11:34:29.605Z,729.65
2022-12-05T11:35:29.602Z,728.34
2022-12-05T11:36:29.628Z,727.52
2022-12-05T11:37:29.601Z,726.66
2022-12-05T11:38:29.605Z,724.6
2022-12-05T11:39:29.606Z,724.99
2022-12-05T11:40:32.798Z,725.13
2022-12-05T11:41:29.632Z,725.38
2022-12-05T11:42:29.606Z,726.92
2022-12-05T11:43:29.643Z,726.69
2022-12-05T11:44:29.609Z,726.93
2022-12-05T11:45:29.610Z,727.07
2022-12-05T11:46:29.701Z,727.43
2022-12-05T11:47:29.652Z,727.94
2022-12-05T11:48:29.613Z,728.03
2022-12-05T11:49:29.620Z,728.54
2022-12-05T11:50:29.619Z,728.5
2022-12-05T11:51:29.637Z,728.99
2022-12-05T11:52:29.624Z,729.12
2022-12-05T11:53:29.632Z,729.8
2022-12-05T11:55:03.127Z,729.94
2022-12-05T11:55:29.627Z,729.91
2022-12-05T11:56:29.666Z,730.53
2022-12-05T11:57:29.629Z,730.57
2022-12-05T11:58:29.631Z,730.06
2022-12-05T11:59:29.657Z,729.57
2022-12-05T12:00:29.633Z,729.57
2022-12-05T12:01:29.653Z,730.08
2022-12-05T12:02:29.690Z,730.51
2022-12-05T12:03:33.000Z,731.51
2022-12-05T12:04:29.633Z,732.35
2022-12-05T12:05:32.400Z,732.59
2022-12-05T12:06:29.657Z,733.25
2022-12-05T12:07:29.675Z,733.56
2022-12-05T12:08:29.633Z,733.78
2022-12-05T12:09:29.650Z,734.56
2022-12-05T12:10:29.647Z,735.2
2022-12-05T12:11:29.664Z,736.46
2022-12-05T12:12:29.641Z,736.98
2022-12-05T12:13:29.646Z,736.6
2022-12-05T12:14:29.641Z,737.38
2022-12-05T12:15:29.668Z,738.05
2022-12-05T12:16:32.983Z,738.96
2022-12-05T12:17:29.647Z,739.42
2022-12-05T12:18:29.654Z,740.25
2022-12-05T12:19:29.655Z,741.21
2022-12-05T12:20:29.654Z,741.35
2022-12-05T12:21:32.747Z,741.94
2022-12-05T12:22:29.649Z,741.58
2022-12-05T12:23:29.653Z,742.34
2022-12-05T12:24:29.655Z,743.55
2022-12-05T12:25:29.707Z,744.03
2022-12-05T12:26:29.664Z,744.78
2022-12-05T12:27:32.793Z,745.76
2022-12-05T12:28:29.672Z,746.91
2022-12-05T12:29:29.661Z,748.23
2022-12-05T12:30:29.665Z,750.15
2022-12-05T12:31:29.717Z,750.66
2022-12-05T12:32:29.664Z,751.51
2022-12-05T12:33:29.670Z,752.16
2022-12-05T12:34:29.711Z,753.6
2022-12-05T12:35:29.676Z,754.22
2022-12-05T12:36:29.681Z,754.51
2022-12-05T12:37:29.696Z,753.7
2022-12-05T12:38:29.675Z,753.55
2022-12-05T12:39:29.671Z,753.49
2022-12-05T12:40:29.723Z,752.56
2022-12-05T12:41:29.678Z,751.88
2022-12-05T12:42:29.706Z,751.78
2022-12-05T12:43:52.484Z,751.09
2022-12-05T12:44:29.683Z,750.44
2022-12-05T12:45:29.727Z,750.62
2022-12-05T12:46:29.786Z,748.96
2022-12-05T12:47:29.736Z,748.34
2022-12-05T12:48:29.679Z,745.95
2022-12-05T12:49:29.684Z,745.4
2022-12-05T12:50:29.716Z,743.79
2022-12-05T12:51:29.687Z,742.39
2022-12-05T12:52:29.716Z,741.63
2022-12-05T12:53:29.699Z,741.59
2022-12-05T12:54:55.119Z,740.13
2022-12-05T12:55:29.696Z,740.05
2022-12-05T12:56:29.696Z,739.31
2022-12-05T12:57:29.730Z,738.67
2022-12-05T12:58:29.696Z,738.37
2022-12-05T12:59:29.703Z,737.26
2022-12-05T13:00:29.768Z,737.03
2022-12-05T13:01:29.826Z,736.28
2022-12-05T13:02:29.776Z,735.93
2022-12-05T13:03:29.732Z,734.94
2022-12-05T13:04:29.703Z,734.69
2022-12-05T13:05:29.712Z,735.08
2022-12-05T13:06:29.703Z,735.54
2022-12-05T13:07:29.790Z,736.83
2022-12-05T13:08:29.710Z,736.97
2022-12-05T13:09:29.721Z,736.87
2022-12-05T13:10:29.707Z,737.68
2022-12-05T13:11:29.716Z,738.3
2022-12-05T13:12:29.740Z,738.79
2022-12-05T13:13:32.721Z,738.93
2022-12-05T13:14:29.717Z,740.52
2022-12-05T13:15:29.734Z,741.02
2022-12-05T13:16:29.759Z,741.31
2022-12-05T13:17:29.749Z,742.09
2022-12-05T13:18:29.715Z,742.96
2022-12-05T13:19:29.741Z,743.32
2022-12-05T13:20:29.721Z,744.12
2022-12-05T13:21:29.727Z,745.1
2022-12-05T13:22:29.752Z,745.2
2022-12-05T13:23:29.723Z,746.16
2022-12-05T13:24:29.720Z,746.79
2022-12-05T13:25:29.735Z,746.9
2022-12-05T13:26:29.726Z,748.03
2022-12-05T13:27:29.752Z,748.05
2022-12-05T13:28:29.726Z,749.16
2022-12-05T13:29:29.758Z,749.64
2022-12-05T13:30:29.731Z,750.65
2022-12-05T13:31:29.765Z,751.32
2022-12-05T13:32:29.757Z,751.59
2022-12-05T13:33:29.731Z,752.68
2022-12-05T13:34:29.737Z,752.8
2022-12-05T13:35:29.766Z,753.48
2022-12-05T13:36:29.746Z,754.42
2022-12-05T13:37:29.763Z,754.58
2022-12-05T13:38:29.738Z,754.51
2022-12-05T13:39:29.741Z,755.03
2022-12-05T13:40:29.741Z,754.92
2022-12-05T13:41:29.747Z,756.01
2022-12-05T13:42:29.763Z,755.82
2022-12-05T13:43:29.746Z,755.83
2022-12-05T13:44:32.725Z,755.81
2022-12-05T13:45:29.806Z,756.28
2022-12-05T13:46:29.811Z,756.4
2022-12-05T13:47:29.784Z,756.43
2022-12-05T13:48:29.765Z,755.64
2022-12-05T13:49:29.760Z,755.17
2022-12-05T13:50:29.760Z,755.48
2022-12-05T13:51:29.831Z,755.81
2022-12-05T13:52:29.776Z,755.64
2022-12-05T13:53:29.778Z,755.66
2022-12-05T13:54:29.803Z,755.46
2022-12-05T13:55:35.521Z,755.28
2022-12-05T13:56:29.768Z,756.19
2022-12-05T13:57:29.806Z,756.88
2022-12-05T13:58:29.761Z,757.18
2022-12-05T13:59:29.761Z,757.34
2022-12-05T14:00:29.770Z,757.95
2022-12-05T14:01:29.808Z,758.27
2022-12-05T14:02:29.816Z,758.13
2022-12-05T14:03:29.775Z,758.95
2022-12-05T14:04:29.780Z,759.13
2022-12-05T14:05:29.776Z,759.3
2022-12-05T14:06:29.777Z,759.61
2022-12-05T14:07:29.834Z,759.65
2022-12-05T14:08:29.781Z,758.84
2022-12-05T14:09:29.793Z,758.69
2022-12-05T14:10:29.774Z,758.58
2022-12-05T14:11:29.777Z,757.88
2022-12-05T14:12:29.801Z,757.84
2022-12-05T14:13:29.842Z,757.58
2022-12-05T14:14:29.782Z,757.58
2022-12-05T14:15:29.808Z,757.1
2022-12-05T14:16:29.892Z,756.19
2022-12-05T14:17:29.810Z,755.92
2022-12-05T14:18:29.796Z,754.98
2022-12-05T14:19:34.367Z,754.1
2022-12-05T14:20:29.789Z,753.46
2022-12-05T14:21:32.811Z,752.95
2022-12-05T14:22:29.860Z,752.94
2022-12-05T14:23:29.815Z,752.77
2022-12-05T14:24:29.797Z,752.51
2022-12-05T14:25:29.802Z,752.35
2022-12-05T14:26:29.806Z,751.45
2022-12-05T14:27:29.819Z,752.07
2022-12-05T14:28:29.798Z,752.07
2022-12-05T14:29:29.799Z,752.37
2022-12-05T14:30:29.848Z,752.38
2022-12-05T14:31:29.808Z,752.81
2022-12-05T14:32:30.942Z,752.31
2022-12-05T14:33:29.806Z,752.88
2022-12-05T14:34:29.817Z,753.1
2022-12-05T14:35:29.815Z,753.09
2022-12-05T14:36:29.828Z,753.84
2022-12-05T14:37:29.808Z,753.88
2022-12-05T14:38:29.815Z,754.31
2022-12-05T14:39:29.840Z,754.84
2022-12-05T14:40:29.822Z,754.48
2022-12-05T14:41:29.825Z,754.51
2022-12-05T14:42:29.858Z,754.32
2022-12-05T14:43:32.871Z,754.1
2022-12-05T14:44:29.820Z,754.26
2022-12-05T14:45:29.821Z,754.58
2022-12-05T14:46:29.891Z,754.27
2022-12-05T14:47:29.820Z,754.95
2022-12-05T14:48:29.820Z,753.77
2022-12-05T14:49:29.830Z,753.44
2022-12-05T14:50:29.842Z,753.46
2022-12-05T14:51:29.829Z,753.53
2022-12-05T14:52:29.833Z,753
2022-12-05T14:53:29.828Z,753.34
2022-12-05T14:54:32.922Z,752.68
2022-12-05T14:55:29.833Z,753.48
2022-12-05T14:56:29.843Z,753.01
2022-12-05T14:57:29.838Z,753.02
2022-12-05T14:58:29.840Z,753.16
2022-12-05T14:59:29.834Z,753.31
2022-12-05T15:00:29.837Z,753.3
2022-12-05T15:01:29.906Z,753.72
2022-12-05T15:02:29.870Z,753.88
2022-12-05T15:03:29.842Z,753.92
2022-12-05T15:04:29.881Z,754.08
2022-12-05T15:05:29.853Z,754.4
2022-12-05T15:06:29.893Z,754.6
2022-12-05T15:07:32.896Z,753.8
2022-12-05T15:08:29.860Z,753.18
2022-12-05T15:09:38.121Z,752.9
2022-12-05T15:10:29.875Z,752.82
2022-12-05T15:11:29.860Z,751.92
2022-12-05T15:12:29.851Z,751.46
2022-12-05T15:13:29.864Z,750.39
2022-12-05T15:14:31.361Z,749.99
2022-12-05T15:15:29.916Z,749.1
2022-12-05T15:16:29.857Z,748.12
2022-12-05T15:17:29.862Z,747.64
2022-12-05T15:18:29.859Z,747.41
2022-12-05T15:19:29.861Z,747.17
2022-12-05T15:20:29.900Z,747.65
2022-12-05T15:21:29.868Z,747.69
2022-12-05T15:22:29.867Z,748.46
2022-12-05T15:23:29.869Z,747.98
2022-12-05T15:24:29.869Z,748.13
2022-12-05T15:25:29.881Z,748.14
2022-12-05T15:26:45.949Z,748.8
2022-12-05T15:27:29.869Z,749.16
2022-12-05T15:28:29.872Z,748.64
2022-12-05T15:29:29.871Z,749.02
2022-12-05T15:30:29.879Z,749.19
2022-12-05T15:31:29.966Z,749.36
2022-12-05T15:32:29.873Z,749.17
2022-12-05T15:33:29.908Z,748.56
2022-12-05T15:34:29.895Z,748.27
2022-12-05T15:35:29.929Z,748.01
2022-12-05T15:36:29.908Z,747.8
2022-12-05T15:37:29.887Z,748.59
2022-12-05T15:38:29.926Z,748.08
2022-12-05T15:39:29.888Z,748.23
2022-12-05T15:40:29.887Z,748.82
2022-12-05T15:41:29.885Z,749.32
2022-12-05T15:42:30.430Z,749.98
2022-12-05T15:43:29.917Z,749.81
2022-12-05T15:44:34.392Z,750.44
2022-12-05T15:45:29.891Z,750.49
2022-12-05T15:46:29.976Z,750.67
2022-12-05T15:47:29.891Z,750.68
2022-12-05T15:48:29.924Z,751.45
2022-12-05T15:49:29.904Z,751.14
2022-12-05T15:50:29.910Z,751.56
2022-12-05T15:51:29.898Z,751.47
2022-12-05T15:52:29.909Z,750.66
2022-12-05T15:53:29.897Z,751.32
2022-12-05T15:54:29.903Z,751
2022-12-05T15:55:29.901Z,751.37
2022-12-05T15:56:29.902Z,750.52
2022-12-05T15:57:29.913Z,750.63
2022-12-05T15:58:29.937Z,751.21
2022-12-05T15:59:29.913Z,750.91
2022-12-05T16:00:29.918Z,750.78
2022-12-05T16:01:30.017Z,750.66
2022-12-05T16:02:29.942Z,750.65
2022-12-05T16:03:29.918Z,751.27
2022-12-05T16:04:30.044Z,750.48
2022-12-05T16:05:29.920Z,749.38
2022-12-05T16:06:29.932Z,748.81
2022-12-05T16:07:29.940Z,747.99
2022-12-05T16:08:29.923Z,748.5
2022-12-05T16:09:29.917Z,747.51
2022-12-05T16:10:29.994Z,747.37
2022-12-05T16:11:29.925Z,747.69
2022-12-05T16:12:29.930Z,747.99
2022-12-05T16:13:29.924Z,747.7
2022-12-05T16:14:58.130Z,748.23
2022-12-05T16:15:29.929Z,748.05
2022-12-05T16:16:29.980Z,748.55
2022-12-05T16:17:29.927Z,748.61
2022-12-05T16:18:29.937Z,748.58
2022-12-05T16:19:29.937Z,748.77
2022-12-05T16:20:29.939Z,749.33
2022-12-05T16:21:33.139Z,749.93
2022-12-05T16:22:29.935Z,749.75
2022-12-05T16:23:29.957Z,750.73
2022-12-05T16:24:29.949Z,750.72
2022-12-05T16:25:29.943Z,750.69
2022-12-05T16:26:29.938Z,750.44
2022-12-05T16:27:29.940Z,750.56
2022-12-05T16:28:29.949Z,749.92
2022-12-05T16:29:29.952Z,748.68
2022-12-05T16:30:29.975Z,747.33
2022-12-05T16:31:30.031Z,745.93
2022-12-05T16:32:29.945Z,744.71
2022-12-05T16:33:29.949Z,744.9
2022-12-05T16:34:29.952Z,743.61
2022-12-05T16:35:29.951Z,743.66
2022-12-05T16:36:29.949Z,743.97
2022-12-05T16:37:29.954Z,743.36
2022-12-05T16:38:30.004Z,743.23
2022-12-05T16:39:29.961Z,742.38
2022-12-05T16:40:30.013Z,742.65
2022-12-05T16:41:29.962Z,742.06
2022-12-05T16:42:29.995Z,741.71
2022-12-05T16:43:29.973Z,741.33
2022-12-05T16:44:30.017Z,741.31
2022-12-05T16:45:30.036Z,741.14
2022-12-05T16:46:30.579Z,741.03
2022-12-05T16:47:30.081Z,740.85
2022-12-05T16:48:33.416Z,741.03
2022-12-05T16:49:30.078Z,740.09
2022-12-05T16:50:30.013Z,739.79
2022-12-05T16:51:29.974Z,739.62
2022-12-05T16:52:29.968Z,738.74
2022-12-05T16:53:29.978Z,737.73
2022-12-05T16:54:29.969Z,736.37
2022-12-05T16:55:33.188Z,734.47
2022-12-05T16:56:29.980Z,733.39
2022-12-05T16:57:29.975Z,732.08
2022-12-05T16:58:29.982Z,730.81
2022-12-05T16:59:33.018Z,730.19
2022-12-05T17:00:29.988Z,729.2
2022-12-05T17:01:33.236Z,729.22
2022-12-05T17:02:30.059Z,728.74
2022-12-05T17:03:34.738Z,728.38
2022-12-05T17:04:30.030Z,728.12
2022-12-05T17:05:29.997Z,727.79
2022-12-05T17:06:29.994Z,726.81
2022-12-05T17:07:33.830Z,725.7
2022-12-05T17:08:30.003Z,725.7
2022-12-05T17:09:29.995Z,724.73
2022-12-05T17:10:33.012Z,724.48
2022-12-05T17:11:29.993Z,724.07
2022-12-05T17:12:29.991Z,723.34
2022-12-05T17:13:29.990Z,723.08
2022-12-05T17:14:29.995Z,722.78
2022-12-05T17:15:29.993Z,722.28
2022-12-05T17:16:30.082Z,722.45
2022-12-05T17:17:30.003Z,722.48
2022-12-05T17:18:31.961Z,722.32
2022-12-05T17:19:30.001Z,721.87
2022-12-05T17:20:30.000Z,721.7
2022-12-05T17:21:32.844Z,721.35
2022-12-05T17:22:30.011Z,721.22
2022-12-05T17:23:30.027Z,721.24
2022-12-05T17:24:30.012Z,721.24
2022-12-05T17:25:30.021Z,721.68
2022-12-05T17:26:30.010Z,722.37
2022-12-05T17:27:30.017Z,721.58
2022-12-05T17:28:30.011Z,720.7
2022-12-05T17:29:35.384Z,719.91
2022-12-05T17:30:30.012Z,719.48
2022-12-05T17:31:30.048Z,718.96
2022-12-05T17:32:32.885Z,718.92
2022-12-05T17:33:30.015Z,719.61
2022-12-05T17:34:30.048Z,719.92
2022-12-05T17:35:30.027Z,719.93
2022-12-05T17:36:30.022Z,720
2022-12-05T17:37:30.030Z,720.62
2022-12-05T17:38:30.027Z,720.94
2022-12-05T17:39:30.024Z,721.45
2022-12-05T17:40:30.032Z,721.26
2022-12-05T17:41:30.033Z,721.53
2022-12-05T17:42:30.039Z,721.46
2022-12-05T17:43:30.033Z,721.45
2022-12-05T17:44:30.057Z,720.66
2022-12-05T17:45:30.033Z,720.89
2022-12-05T17:46:30.101Z,720.49
2022-12-05T17:47:30.038Z,720.83
2022-12-05T17:48:30.044Z,721.04
2022-12-05T17:49:30.065Z,720.92
2022-12-05T17:50:30.063Z,721.08
2022-12-05T17:51:30.048Z,720.71
2022-12-05T17:52:30.042Z,720.27
2022-12-05T17:53:30.038Z,718.98
2022-12-05T17:54:30.062Z,719.48
2022-12-05T17:55:30.040Z,719.27
2022-12-05T17:56:30.049Z,719.12
2022-12-05T17:57:30.041Z,719.12
2022-12-05T17:58:30.045Z,719.61
2022-12-05T17:59:30.097Z,719.1
2022-12-05T18:00:30.142Z,718.97
2022-12-05T18:01:30.132Z,719.09
2022-12-05T18:02:30.054Z,719.09
2022-12-05T18:03:30.163Z,719.58
2022-12-05T18:04:30.077Z,718.86
2022-12-05T18:05:30.061Z,719.57